Rockford, OH (45882)

4:51 PM EDT on July 06, 2015 (GMT -0400)
Ohio-Indiana State Line | | Change Station
CLOSE
Current Station
Personal Weather Station
Location: Willshire, OH
Elevation: 830 ft
Nearby Weather Stations

Elev 830 ft 40.66 °N, 84.79 °W | Updated 12 minutes ago

Clear
Clear
88.0 °F
Feels Like 93 °F
N
4.7
Wind Variable Wind from South

Today
High -- | Low -- °F
--% Chance of Precip.
Yesterday
High -- | Low -- °F
Precip. -- in
6:13 AM 9:12 PM
Waning Gibbous, 72% visible
Pressure 30.02 in
Visibility 10.0 miles
Clouds Few 4400 ft
Heat Index 93 °F
Dew Point 70 °F
Humidity 56%
Rainfall 0.00 in
Snow Depth Not available.
UV 8 out of 12
Pollen 3.80 out of 12
Air Quality Not available.
Flu Activity Not available.
METAR KAOH 061953Z AUTO 26010KT 10SM FEW044 28/17 A3003 RMK AO2 SLP164 T02780172

More Conditions Fewer Conditions

Pressure 30.02 in
Visibility 10.0 miles
Clouds Few 4400 ft
Heat Index 93 °F
Dew Point 70 °F
Humidity 56%
Rainfall 0.00 in
Snow Depth Not available.
UV 8 out of 12
Pollen 3.80 out of 12
Air Quality Not available.
Flu Activity Not available.
METAR KAOH 061953Z AUTO 26010KT 10SM FEW044 28/17 A3003 RMK AO2 SLP164 T02780172

More Conditions Fewer Conditions

10-Day Weather Forecast

×

Almanac

Astronomy

Jul. 06, 2015 Rise Set
Actual Time
Civil Twilight
Nautical Twilight
Astronomical Twilight
Moon
Length of Visible Light
Length of Day
Tomorrow will be .
, % of the Moon is Illuminated

Today's Extremes

State Highs State Lows

Community

WunderPhotos

Upload Photos

1,835,638 photos uploaded!

WunderBlogs® & News

Nearby

Air Quality

  Air Quality AQ Index Pollutant
Not available.

Snow Depth

Station Depth Elevation

Earthquake Activity

City Distance Mag. Time & Date
Minimum magnitude displayed is 2.5.

Coastal Water Temperatures

Place Temperature

Stations

Nearby Weather Stations

Station Location Temp. Windchill Dew Point Humidity Wind Precip. Elev Updated Type